sensor_id;sensor_type;location;lat;lon;timestamp;P1;P2;P0
69224;PMS1003;56333;51.306;17.056;2023-02-01T00:00:37;5.60;1.10;
69224;PMS1003;56333;51.306;17.056;2023-02-01T00:02:06;5.30;1.20;
69224;PMS1003;56333;51.306;17.056;2023-02-01T00:03:35;6.00;1.20;
69224;PMS1003;56333;51.306;17.056;2023-02-01T00:05:06;4.20;1.30;
69224;PMS1003;56333;51.306;17.056;2023-02-01T00:06:36;4.80;1.20;
69224;PMS1003;56333;51.306;17.056;2023-02-01T00:08:05;4.70;1.30;
69224;PMS1003;56333;51.306;17.056;2023-02-01T00:09:36;5.90;1.40;
69224;PMS1003;56333;51.306;17.056;2023-02-01T00:11:07;5.10;1.20;
69224;PMS1003;56333;51.306;17.056;2023-02-01T00:12:36;3.50;1.30;
69224;PMS1003;56333;51.306;17.056;2023-02-01T00:14:06;5.20;1.00;
69224;PMS1003;56333;51.306;17.056;2023-02-01T00:15:35;5.00;1.60;
69224;PMS1003;56333;51.306;17.056;2023-02-01T00:17:04;5.70;1.20;
69224;PMS1003;56333;51.306;17.056;2023-02-01T00:18:33;6.70;1.50;
69224;PMS1003;56333;51.306;17.056;2023-02-01T00:20:01;3.80;1.30;
69224;PMS1003;56333;51.306;17.056;2023-02-01T00:21:33;7.40;1.80;
69224;PMS1003;56333;51.306;17.056;2023-02-01T00:23:01;4.10;1.20;
69224;PMS1003;56333;51.306;17.056;2023-02-01T00:24:30;4.10;1.30;
69224;PMS1003;56333;51.306;17.056;2023-02-01T00:26:01;4.90;1.30;
69224;PMS1003;56333;51.306;17.056;2023-02-01T00:27:31;5.90;1.30;
69224;PMS1003;56333;51.306;17.056;2023-02-01T00:29:00;4.40;1.40;
69224;PMS1003;56333;51.306;17.056;2023-02-01T00:30:30;3.60;1.10;
69224;PMS1003;56333;51.306;17.056;2023-02-01T00:31:59;6.70;1.40;
69224;PMS1003;56333;51.306;17.056;2023-02-01T00:33:28;6.70;1.40;
69224;PMS1003;56333;51.306;17.056;2023-02-01T00:34:57;6.50;1.30;
69224;PMS1003;56333;51.306;17.056;2023-02-01T00:36:26;4.80;1.30;
69224;PMS1003;56333;51.306;17.056;2023-02-01T00:37:56;6.20;1.40;
69224;PMS1003;56333;51.306;17.056;2023-02-01T00:39:26;4.80;1.30;
69224;PMS1003;56333;51.306;17.056;2023-02-01T00:41:01;7.00;1.50;
69224;PMS1003;56333;51.306;17.056;2023-02-01T00:42:30;4.90;1.10;
69224;PMS1003;56333;51.306;17.056;2023-02-01T00:44:00;7.10;1.30;
69224;PMS1003;56333;51.306;17.056;2023-02-01T00:45:29;6.90;1.70;
69224;PMS1003;56333;51.306;17.056;2023-02-01T00:46:59;6.10;1.60;
69224;PMS1003;56333;51.306;17.056;2023-02-01T00:48:28;5.80;1.40;
69224;PMS1003;56333;51.306;17.056;2023-02-01T00:49:58;4.70;1.30;
69224;PMS1003;56333;51.306;17.056;2023-02-01T00:51:28;6.30;1.40;
69224;PMS1003;56333;51.306;17.056;2023-02-01T00:52:58;4.90;1.60;
69224;PMS1003;56333;51.306;17.056;2023-02-01T00:54:27;8.20;1.40;
69224;PMS1003;56333;51.306;17.056;2023-02-01T00:55:56;7.80;1.40;
69224;PMS1003;56333;51.306;17.056;2023-02-01T00:57:24;4.70;1.50;
69224;PMS1003;56333;51.306;17.056;2023-02-01T00:58:53;7.20;1.60;
69224;PMS1003;56333;51.306;17.056;2023-02-01T01:00:23;5.80;1.50;
69224;PMS1003;56333;51.306;17.056;2023-02-01T01:01:53;6.70;1.50;
69224;PMS1003;56333;51.306;17.056;2023-02-01T01:03:24;6.80;1.60;
69224;PMS1003;56333;51.306;17.056;2023-02-01T01:04:56;7.30;1.70;
69224;PMS1003;56333;51.306;17.056;2023-02-01T01:06:28;6.70;1.60;
69224;PMS1003;56333;51.306;17.056;2023-02-01T01:07:59;4.40;1.50;
69224;PMS1003;56333;51.306;17.056;2023-02-01T01:09:29;5.50;1.40;
69224;PMS1003;56333;51.306;17.056;2023-02-01T01:10:58;7.10;1.40;
69224;PMS1003;56333;51.306;17.056;2023-02-01T01:12:27;5.90;1.50;
69224;PMS1003;56333;51.306;17.056;2023-02-01T01:13:59;6.10;1.50;
69224;PMS1003;56333;51.306;17.056;2023-02-01T01:15:29;5.60;1.70;
69224;PMS1003;56333;51.306;17.056;2023-02-01T01:16:58;6.70;1.50;
69224;PMS1003;56333;51.306;17.056;2023-02-01T01:18:29;4.70;1.30;
69224;PMS1003;56333;51.306;17.056;2023-02-01T01:21:30;8.10;1.60;
69224;PMS1003;56333;51.306;17.056;2023-02-01T01:23:00;8.10;1.60;
69224;PMS1003;56333;51.306;17.056;2023-02-01T01:24:29;5.10;1.50;
69224;PMS1003;56333;51.306;17.056;2023-02-01T01:25:58;7.30;1.60;
69224;PMS1003;56333;51.306;17.056;2023-02-01T01:27:27;7.40;1.70;
69224;PMS1003;56333;51.306;17.056;2023-02-01T01:28:58;4.10;1.20;
69224;PMS1003;56333;51.306;17.056;2023-02-01T01:31:54;4.50;1.40;
69224;PMS1003;56333;51.306;17.056;2023-02-01T01:33:23;5.20;1.40;
69224;PMS1003;56333;51.306;17.056;2023-02-01T01:34:52;7.30;1.70;
69224;PMS1003;56333;51.306;17.056;2023-02-01T01:36:22;5.00;1.30;
69224;PMS1003;56333;51.306;17.056;2023-02-01T01:37:52;6.00;1.70;
69224;PMS1003;56333;51.306;17.056;2023-02-01T01:39:21;7.30;1.40;
69224;PMS1003;56333;51.306;17.056;2023-02-01T01:40:50;6.10;1.20;
69224;PMS1003;56333;51.306;17.056;2023-02-01T01:42:19;5.60;1.10;
69224;PMS1003;56333;51.306;17.056;2023-02-01T01:43:57;4.90;1.10;
69224;PMS1003;56333;51.306;17.056;2023-02-01T01:45:30;5.00;1.50;
69224;PMS1003;56333;51.306;17.056;2023-02-01T01:47:00;3.60;1.30;
69224;PMS1003;56333;51.306;17.056;2023-02-01T01:48:31;3.80;1.20;
69224;PMS1003;56333;51.306;17.056;2023-02-01T01:50:00;5.90;1.30;
69224;PMS1003;56333;51.306;17.056;2023-02-01T01:51:32;3.90;1.10;
69224;PMS1003;56333;51.306;17.056;2023-02-01T01:53:07;4.60;1.10;
69224;PMS1003;56333;51.306;17.056;2023-02-01T01:54:42;5.30;1.60;
69224;PMS1003;56333;51.306;17.056;2023-02-01T01:56:12;3.70;1.10;
69224;PMS1003;56333;51.306;17.056;2023-02-01T01:57:45;3.40;1.10;
69224;PMS1003;56333;51.306;17.056;2023-02-01T01:59:16;4.70;1.60;
69224;PMS1003;56333;51.306;17.056;2023-02-01T02:00:46;4.30;1.40;
69224;PMS1003;56333;51.306;17.056;2023-02-01T02:02:14;5.90;1.50;
69224;PMS1003;56333;51.306;17.056;2023-02-01T02:03:46;4.60;1.10;
69224;PMS1003;56333;51.306;17.056;2023-02-01T02:05:17;4.90;1.30;
69224;PMS1003;56333;51.306;17.056;2023-02-01T02:06:51;6.20;1.30;
69224;PMS1003;56333;51.306;17.056;2023-02-01T02:08:25;5.00;1.40;
69224;PMS1003;56333;51.306;17.056;2023-02-01T02:09:55;7.90;1.60;
69224;PMS1003;56333;51.306;17.056;2023-02-01T02:11:24;5.00;1.20;
69224;PMS1003;56333;51.306;17.056;2023-02-01T02:12:53;7.40;1.50;
69224;PMS1003;56333;51.306;17.056;2023-02-01T02:14:24;5.90;1.20;
69224;PMS1003;56333;51.306;17.056;2023-02-01T02:16:05;8.00;1.40;
69224;PMS1003;56333;51.306;17.056;2023-02-01T02:17:59;5.40;1.40;
69224;PMS1003;56333;51.306;17.056;2023-02-01T02:22:43;6.40;1.40;
69224;PMS1003;56333;51.306;17.056;2023-02-01T02:24:45;5.20;1.50;
69224;PMS1003;56333;51.306;17.056;2023-02-01T02:31:50;5.40;1.40;
69224;PMS1003;56333;51.306;17.056;2023-02-01T02:34:10;6.00;1.60;
69224;PMS1003;56333;51.306;17.056;2023-02-01T02:35:48;7.00;1.80;
69224;PMS1003;56333;51.306;17.056;2023-02-01T02:37:36;9.10;1.80;
69224;PMS1003;56333;51.306;17.056;2023-02-01T02:39:11;5.80;1.80;
69224;PMS1003;56333;51.306;17.056;2023-02-01T02:40:49;9.40;1.80;
69224;PMS1003;56333;51.306;17.056;2023-02-01T02:42:29;7.70;1.60;
69224;PMS1003;56333;51.306;17.056;2023-02-01T02:44:31;10.20;1.70;
69224;PMS1003;56333;51.306;17.056;2023-02-01T02:46:26;7.90;1.90;
69224;PMS1003;56333;51.306;17.056;2023-02-01T02:48:22;7.10;1.50;
69224;PMS1003;56333;51.306;17.056;2023-02-01T02:49:58;9.40;2.40;
69224;PMS1003;56333;51.306;17.056;2023-02-01T02:51:54;8.80;1.60;
69224;PMS1003;56333;51.306;17.056;2023-02-01T02:53:51;7.20;2.00;
69224;PMS1003;56333;51.306;17.056;2023-02-01T02:55:44;9.20;2.10;
69224;PMS1003;56333;51.306;17.056;2023-02-01T02:57:18;6.70;1.60;
69224;PMS1003;56333;51.306;17.056;2023-02-01T02:59:08;10.80;1.90;
69224;PMS1003;56333;51.306;17.056;2023-02-01T03:00:56;7.90;2.00;
69224;PMS1003;56333;51.306;17.056;2023-02-01T03:02:43;8.70;1.70;
69224;PMS1003;56333;51.306;17.056;2023-02-01T03:04:31;9.60;2.10;
69224;PMS1003;56333;51.306;17.056;2023-02-01T03:06:00;10.50;2.10;
69224;PMS1003;56333;51.306;17.056;2023-02-01T03:08:03;8.20;2.20;
69224;PMS1003;56333;51.306;17.056;2023-02-01T03:09:38;8.20;1.80;
69224;PMS1003;56333;51.306;17.056;2023-02-01T03:11:12;13.50;2.10;
69224;PMS1003;56333;51.306;17.056;2023-02-01T03:12:43;9.00;1.80;
69224;PMS1003;56333;51.306;17.056;2023-02-01T03:14:25;12.80;2.40;
69224;PMS1003;56333;51.306;17.056;2023-02-01T03:16:03;11.80;2.00;
69224;PMS1003;56333;51.306;17.056;2023-02-01T03:19:15;8.60;1.90;
69224;PMS1003;56333;51.306;17.056;2023-02-01T03:20:49;8.20;1.70;
69224;PMS1003;56333;51.306;17.056;2023-02-01T03:22:22;10.10;2.10;
69224;PMS1003;56333;51.306;17.056;2023-02-01T03:23:55;10.90;1.90;
69224;PMS1003;56333;51.306;17.056;2023-02-01T03:25:30;10.50;2.40;
69224;PMS1003;56333;51.306;17.056;2023-02-01T03:27:05;10.50;2.10;
69224;PMS1003;56333;51.306;17.056;2023-02-01T03:28:37;10.90;2.20;
69224;PMS1003;56333;51.306;17.056;2023-02-01T03:30:17;11.40;2.20;
69224;PMS1003;56333;51.306;17.056;2023-02-01T03:31:48;11.10;2.30;
69224;PMS1003;56333;51.306;17.056;2023-02-01T03:33:20;11.30;2.50;
69224;PMS1003;56333;51.306;17.056;2023-02-01T03:34:51;9.00;2.00;
69224;PMS1003;56333;51.306;17.056;2023-02-01T03:36:28;9.70;2.00;
69224;PMS1003;56333;51.306;17.056;2023-02-01T03:38:08;8.40;1.70;
69224;PMS1003;56333;51.306;17.056;2023-02-01T03:39:48;9.60;2.20;
69224;PMS1003;56333;51.306;17.056;2023-02-01T03:41:26;8.80;1.90;
69224;PMS1003;56333;51.306;17.056;2023-02-01T03:43:00;9.70;1.70;
69224;PMS1003;56333;51.306;17.056;2023-02-01T03:44:36;11.20;2.00;
69224;PMS1003;56333;51.306;17.056;2023-02-01T03:46:16;11.70;2.20;
69224;PMS1003;56333;51.306;17.056;2023-02-01T03:47:52;9.90;2.10;
69224;PMS1003;56333;51.306;17.056;2023-02-01T03:49:26;12.30;2.00;
69224;PMS1003;56333;51.306;17.056;2023-02-01T03:50:59;9.90;1.90;
69224;PMS1003;56333;51.306;17.056;2023-02-01T03:52:32;10.90;2.20;
69224;PMS1003;56333;51.306;17.056;2023-02-01T03:54:09;7.80;1.80;
69224;PMS1003;56333;51.306;17.056;2023-02-01T03:55:41;9.30;2.20;
69224;PMS1003;56333;51.306;17.056;2023-02-01T03:57:14;13.40;2.10;
69224;PMS1003;56333;51.306;17.056;2023-02-01T03:58:47;9.60;2.50;
69224;PMS1003;56333;51.306;17.056;2023-02-01T04:00:27;9.90;1.90;
69224;PMS1003;56333;51.306;17.056;2023-02-01T04:01:56;8.10;2.20;
69224;PMS1003;56333;51.306;17.056;2023-02-01T04:03:26;12.30;2.60;
69224;PMS1003;56333;51.306;17.056;2023-02-01T04:04:59;10.80;2.10;
69224;PMS1003;56333;51.306;17.056;2023-02-01T04:06:28;8.00;1.90;
69224;PMS1003;56333;51.306;17.056;2023-02-01T04:07:59;12.10;2.10;
69224;PMS1003;56333;51.306;17.056;2023-02-01T04:09:29;7.40;2.10;
69224;PMS1003;56333;51.306;17.056;2023-02-01T04:10:58;13.10;2.50;
69224;PMS1003;56333;51.306;17.056;2023-02-01T04:12:27;10.70;2.20;
69224;PMS1003;56333;51.306;17.056;2023-02-01T04:13:56;10.40;2.20;
69224;PMS1003;56333;51.306;17.056;2023-02-01T04:15:30;8.90;2.00;
69224;PMS1003;56333;51.306;17.056;2023-02-01T04:17:00;9.10;2.10;
69224;PMS1003;56333;51.306;17.056;2023-02-01T04:18:29;11.40;2.20;
69224;PMS1003;56333;51.306;17.056;2023-02-01T04:19:58;10.70;2.20;
69224;PMS1003;56333;51.306;17.056;2023-02-01T04:21:27;9.60;2.20;
69224;PMS1003;56333;51.306;17.056;2023-02-01T04:22:56;12.00;2.20;
69224;PMS1003;56333;51.306;17.056;2023-02-01T04:24:25;9.80;2.10;
69224;PMS1003;56333;51.306;17.056;2023-02-01T04:25:55;7.60;1.90;
69224;PMS1003;56333;51.306;17.056;2023-02-01T04:27:28;10.20;1.90;
69224;PMS1003;56333;51.306;17.056;2023-02-01T04:28:57;8.50;1.90;
69224;PMS1003;56333;51.306;17.056;2023-02-01T04:30:26;8.70;1.90;
69224;PMS1003;56333;51.306;17.056;2023-02-01T04:31:55;13.60;2.70;
69224;PMS1003;56333;51.306;17.056;2023-02-01T04:33:24;10.00;2.30;
69224;PMS1003;56333;51.306;17.056;2023-02-01T04:34:53;12.10;2.50;
69224;PMS1003;56333;51.306;17.056;2023-02-01T04:36:22;9.60;2.30;
69224;PMS1003;56333;51.306;17.056;2023-02-01T04:37:51;10.60;2.10;
69224;PMS1003;56333;51.306;17.056;2023-02-01T04:39:20;9.70;2.30;
69224;PMS1003;56333;51.306;17.056;2023-02-01T04:40:51;9.10;2.80;
69224;PMS1003;56333;51.306;17.056;2023-02-01T04:42:20;10.00;2.00;
69224;PMS1003;56333;51.306;17.056;2023-02-01T04:43:50;9.00;2.30;
69224;PMS1003;56333;51.306;17.056;2023-02-01T04:45:19;9.80;2.00;
69224;PMS1003;56333;51.306;17.056;2023-02-01T04:46:48;7.70;2.00;
69224;PMS1003;56333;51.306;17.056;2023-02-01T04:48:18;7.90;2.40;
69224;PMS1003;56333;51.306;17.056;2023-02-01T04:49:48;10.30;2.50;
69224;PMS1003;56333;51.306;17.056;2023-02-01T04:51:17;9.20;2.30;
69224;PMS1003;56333;51.306;17.056;2023-02-01T04:52:46;12.50;2.30;
69224;PMS1003;56333;51.306;17.056;2023-02-01T04:54:15;10.20;2.30;
69224;PMS1003;56333;51.306;17.056;2023-02-01T04:55:47;10.00;2.70;
69224;PMS1003;56333;51.306;17.056;2023-02-01T04:57:16;8.60;2.20;
69224;PMS1003;56333;51.306;17.056;2023-02-01T04:58:45;12.80;2.20;
69224;PMS1003;56333;51.306;17.056;2023-02-01T05:00:17;12.70;2.20;
69224;PMS1003;56333;51.306;17.056;2023-02-01T05:01:46;11.40;2.30;
69224;PMS1003;56333;51.306;17.056;2023-02-01T05:03:15;9.80;2.00;
69224;PMS1003;56333;51.306;17.056;2023-02-01T05:04:45;10.70;2.40;
69224;PMS1003;56333;51.306;17.056;2023-02-01T05:06:13;10.30;2.50;
69224;PMS1003;56333;51.306;17.056;2023-02-01T05:07:42;8.60;1.90;
69224;PMS1003;56333;51.306;17.056;2023-02-01T05:09:12;8.30;2.40;
69224;PMS1003;56333;51.306;17.056;2023-02-01T05:10:41;11.00;2.30;
69224;PMS1003;56333;51.306;17.056;2023-02-01T05:12:13;10.60;2.60;
69224;PMS1003;56333;51.306;17.056;2023-02-01T05:14:00;11.00;2.80;
69224;PMS1003;56333;51.306;17.056;2023-02-01T05:15:29;9.90;2.60;
69224;PMS1003;56333;51.306;17.056;2023-02-01T05:16:58;10.10;2.50;
69224;PMS1003;56333;51.306;17.056;2023-02-01T05:18:27;9.20;2.60;
69224;PMS1003;56333;51.306;17.056;2023-02-01T05:19:56;11.70;2.20;
69224;PMS1003;56333;51.306;17.056;2023-02-01T05:21:24;11.80;2.40;
69224;PMS1003;56333;51.306;17.056;2023-02-01T05:22:54;9.60;2.60;
69224;PMS1003;56333;51.306;17.056;2023-02-01T05:24:22;8.20;2.10;
69224;PMS1003;56333;51.306;17.056;2023-02-01T05:25:57;9.00;2.70;
69224;PMS1003;56333;51.306;17.056;2023-02-01T05:27:27;13.00;2.80;
69224;PMS1003;56333;51.306;17.056;2023-02-01T05:28:57;9.50;2.50;
69224;PMS1003;56333;51.306;17.056;2023-02-01T05:30:26;11.00;2.90;
69224;PMS1003;56333;51.306;17.056;2023-02-01T05:31:54;6.90;2.40;
69224;PMS1003;56333;51.306;17.056;2023-02-01T05:33:24;13.00;2.50;
69224;PMS1003;56333;51.306;17.056;2023-02-01T05:34:54;11.40;2.60;
69224;PMS1003;56333;51.306;17.056;2023-02-01T05:36:23;12.00;2.80;
69224;PMS1003;56333;51.306;17.056;2023-02-01T05:37:53;11.20;2.60;
69224;PMS1003;56333;51.306;17.056;2023-02-01T05:39:22;12.00;2.60;
69224;PMS1003;56333;51.306;17.056;2023-02-01T05:40:51;10.70;2.50;
69224;PMS1003;56333;51.306;17.056;2023-02-01T05:42:19;10.20;2.30;
69224;PMS1003;56333;51.306;17.056;2023-02-01T05:43:48;9.00;2.10;
69224;PMS1003;56333;51.306;17.056;2023-02-01T05:45:18;10.50;2.70;
69224;PMS1003;56333;51.306;17.056;2023-02-01T05:46:47;12.00;2.90;
69224;PMS1003;56333;51.306;17.056;2023-02-01T05:48:18;13.00;2.70;
69224;PMS1003;56333;51.306;17.056;2023-02-01T05:49:47;8.50;2.30;
69224;PMS1003;56333;51.306;17.056;2023-02-01T05:51:16;11.10;2.50;
69224;PMS1003;56333;51.306;17.056;2023-02-01T05:52:45;11.00;2.30;
69224;PMS1003;56333;51.306;17.056;2023-02-01T05:54:14;9.90;2.40;
69224;PMS1003;56333;51.306;17.056;2023-02-01T05:55:43;8.80;2.70;
69224;PMS1003;56333;51.306;17.056;2023-02-01T05:57:12;10.30;2.30;
69224;PMS1003;56333;51.306;17.056;2023-02-01T05:58:41;11.00;2.30;
69224;PMS1003;56333;51.306;17.056;2023-02-01T06:00:13;11.20;2.40;
69224;PMS1003;56333;51.306;17.056;2023-02-01T06:01:43;8.10;2.70;
69224;PMS1003;56333;51.306;17.056;2023-02-01T06:03:12;10.30;2.30;
69224;PMS1003;56333;51.306;17.056;2023-02-01T06:04:42;14.70;2.60;
69224;PMS1003;56333;51.306;17.056;2023-02-01T06:06:11;10.40;2.30;
69224;PMS1003;56333;51.306;17.056;2023-02-01T06:07:40;9.10;2.30;
69224;PMS1003;56333;51.306;17.056;2023-02-01T06:09:10;10.20;2.40;
69224;PMS1003;56333;51.306;17.056;2023-02-01T06:10:40;12.20;2.50;
69224;PMS1003;56333;51.306;17.056;2023-02-01T06:12:10;12.10;2.90;
69224;PMS1003;56333;51.306;17.056;2023-02-01T06:13:40;10.70;2.50;
69224;PMS1003;56333;51.306;17.056;2023-02-01T06:15:12;7.40;2.40;
69224;PMS1003;56333;51.306;17.056;2023-02-01T06:16:45;10.00;2.20;
69224;PMS1003;56333;51.306;17.056;2023-02-01T06:18:17;11.50;2.70;
69224;PMS1003;56333;51.306;17.056;2023-02-01T06:19:47;8.80;2.60;
69224;PMS1003;56333;51.306;17.056;2023-02-01T06:21:18;10.00;2.60;
69224;PMS1003;56333;51.306;17.056;2023-02-01T06:22:50;9.50;2.60;
69224;PMS1003;56333;51.306;17.056;2023-02-01T06:24:20;13.70;3.10;
69224;PMS1003;56333;51.306;17.056;2023-02-01T06:25:49;9.30;2.20;
69224;PMS1003;56333;51.306;17.056;2023-02-01T06:27:19;10.70;2.60;
69224;PMS1003;56333;51.306;17.056;2023-02-01T06:28:49;12.90;2.60;
69224;PMS1003;56333;51.306;17.056;2023-02-01T06:30:19;8.10;2.60;
69224;PMS1003;56333;51.306;17.056;2023-02-01T06:31:48;12.70;2.50;
69224;PMS1003;56333;51.306;17.056;2023-02-01T06:33:17;11.20;2.60;
69224;PMS1003;56333;51.306;17.056;2023-02-01T06:34:46;10.90;2.70;
69224;PMS1003;56333;51.306;17.056;2023-02-01T06:36:16;10.20;2.60;
69224;PMS1003;56333;51.306;17.056;2023-02-01T06:37:46;11.90;2.80;
69224;PMS1003;56333;51.306;17.056;2023-02-01T06:39:15;10.50;2.60;
69224;PMS1003;56333;51.306;17.056;2023-02-01T06:40:44;11.70;2.60;
69224;PMS1003;56333;51.306;17.056;2023-02-01T06:42:20;9.50;2.60;
69224;PMS1003;56333;51.306;17.056;2023-02-01T06:43:50;8.20;2.30;
69224;PMS1003;56333;51.306;17.056;2023-02-01T06:45:19;9.50;2.50;
69224;PMS1003;56333;51.306;17.056;2023-02-01T06:46:48;8.10;2.20;
69224;PMS1003;56333;51.306;17.056;2023-02-01T06:48:22;11.20;2.60;
69224;PMS1003;56333;51.306;17.056;2023-02-01T06:49:52;13.50;3.10;
69224;PMS1003;56333;51.306;17.056;2023-02-01T06:51:27;8.90;2.60;
69224;PMS1003;56333;51.306;17.056;2023-02-01T06:52:56;11.80;2.50;
69224;PMS1003;56333;51.306;17.056;2023-02-01T06:54:25;8.90;2.70;
69224;PMS1003;56333;51.306;17.056;2023-02-01T06:55:57;8.90;2.80;
69224;PMS1003;56333;51.306;17.056;2023-02-01T06:57:28;8.40;2.50;
69224;PMS1003;56333;51.306;17.056;2023-02-01T06:58:59;10.20;2.80;
69224;PMS1003;56333;51.306;17.056;2023-02-01T07:00:29;11.90;2.90;
69224;PMS1003;56333;51.306;17.056;2023-02-01T07:01:58;8.20;2.10;
69224;PMS1003;56333;51.306;17.056;2023-02-01T07:03:27;9.30;2.40;
69224;PMS1003;56333;51.306;17.056;2023-02-01T07:04:58;7.90;2.30;
69224;PMS1003;56333;51.306;17.056;2023-02-01T07:06:28;10.10;2.50;
69224;PMS1003;56333;51.306;17.056;2023-02-01T07:07:57;11.20;2.90;
69224;PMS1003;56333;51.306;17.056;2023-02-01T07:09:27;7.90;2.70;
69224;PMS1003;56333;51.306;17.056;2023-02-01T07:10:56;12.20;3.10;
69224;PMS1003;56333;51.306;17.056;2023-02-01T07:12:28;11.60;3.00;
69224;PMS1003;56333;51.306;17.056;2023-02-01T07:13:57;10.00;3.20;
69224;PMS1003;56333;51.306;17.056;2023-02-01T07:15:26;14.60;2.80;
69224;PMS1003;56333;51.306;17.056;2023-02-01T07:16:56;10.20;2.80;
69224;PMS1003;56333;51.306;17.056;2023-02-01T07:18:25;10.10;2.60;
69224;PMS1003;56333;51.306;17.056;2023-02-01T07:19:55;9.00;2.40;
69224;PMS1003;56333;51.306;17.056;2023-02-01T07:21:25;9.60;2.70;
69224;PMS1003;56333;51.306;17.056;2023-02-01T07:22:58;10.50;3.10;
69224;PMS1003;56333;51.306;17.056;2023-02-01T07:24:28;10.80;2.80;
69224;PMS1003;56333;51.306;17.056;2023-02-01T07:26:00;12.50;3.80;
69224;PMS1003;56333;51.306;17.056;2023-02-01T07:27:33;12.50;4.00;
69224;PMS1003;56333;51.306;17.056;2023-02-01T07:29:03;11.30;3.50;
69224;PMS1003;56333;51.306;17.056;2023-02-01T07:30:34;8.40;2.60;
69224;PMS1003;56333;51.306;17.056;2023-02-01T07:32:04;9.30;2.80;
69224;PMS1003;56333;51.306;17.056;2023-02-01T07:33:35;10.90;2.80;
69224;PMS1003;56333;51.306;17.056;2023-02-01T07:35:06;9.60;2.60;
69224;PMS1003;56333;51.306;17.056;2023-02-01T07:36:36;13.60;2.40;
69224;PMS1003;56333;51.306;17.056;2023-02-01T07:38:07;10.50;2.20;
69224;PMS1003;56333;51.306;17.056;2023-02-01T07:39:52;15.00;2.80;
69224;PMS1003;56333;51.306;17.056;2023-02-01T07:41:22;10.60;3.00;
69224;PMS1003;56333;51.306;17.056;2023-02-01T07:42:53;10.70;2.50;
69224;PMS1003;56333;51.306;17.056;2023-02-01T07:44:23;11.20;2.90;
69224;PMS1003;56333;51.306;17.056;2023-02-01T07:45:55;15.00;3.00;
69224;PMS1003;56333;51.306;17.056;2023-02-01T07:47:48;11.60;3.20;
69224;PMS1003;56333;51.306;17.056;2023-02-01T07:49:20;12.00;3.30;
69224;PMS1003;56333;51.306;17.056;2023-02-01T07:51:00;11.20;2.90;
69224;PMS1003;56333;51.306;17.056;2023-02-01T07:52:35;11.60;3.70;
69224;PMS1003;56333;51.306;17.056;2023-02-01T07:54:07;16.20;4.30;
69224;PMS1003;56333;51.306;17.056;2023-02-01T07:55:41;11.90;2.90;
69224;PMS1003;56333;51.306;17.056;2023-02-01T07:57:15;8.80;3.00;
69224;PMS1003;56333;51.306;17.056;2023-02-01T07:58:49;7.20;2.30;
69224;PMS1003;56333;51.306;17.056;2023-02-01T08:00:53;9.30;2.50;
69224;PMS1003;56333;51.306;17.056;2023-02-01T08:02:45;13.40;3.20;
69224;PMS1003;56333;51.306;17.056;2023-02-01T08:04:20;7.40;2.70;
69224;PMS1003;56333;51.306;17.056;2023-02-01T08:05:57;10.20;3.00;
69224;PMS1003;56333;51.306;17.056;2023-02-01T08:07:32;9.60;2.80;
69224;PMS1003;56333;51.306;17.056;2023-02-01T08:09:04;10.50;3.20;
69224;PMS1003;56333;51.306;17.056;2023-02-01T08:10:36;12.30;3.10;
69224;PMS1003;56333;51.306;17.056;2023-02-01T08:12:08;8.90;2.60;
69224;PMS1003;56333;51.306;17.056;2023-02-01T08:13:39;10.20;2.90;
69224;PMS1003;56333;51.306;17.056;2023-02-01T08:15:11;11.60;2.70;
69224;PMS1003;56333;51.306;17.056;2023-02-01T08:16:57;8.20;2.50;
69224;PMS1003;56333;51.306;17.056;2023-02-01T08:18:29;8.60;2.70;
69224;PMS1003;56333;51.306;17.056;2023-02-01T08:20:03;7.40;2.40;
69224;PMS1003;56333;51.306;17.056;2023-02-01T08:21:36;9.50;3.30;
69224;PMS1003;56333;51.306;17.056;2023-02-01T08:23:09;12.90;3.20;
69224;PMS1003;56333;51.306;17.056;2023-02-01T08:24:39;7.70;2.70;
69224;PMS1003;56333;51.306;17.056;2023-02-01T08:26:15;7.40;2.60;
69224;PMS1003;56333;51.306;17.056;2023-02-01T08:28:03;11.30;2.70;
69224;PMS1003;56333;51.306;17.056;2023-02-01T08:29:34;13.20;3.10;
69224;PMS1003;56333;51.306;17.056;2023-02-01T08:31:10;10.40;2.90;
69224;PMS1003;56333;51.306;17.056;2023-02-01T08:32:44;9.70;2.80;
69224;PMS1003;56333;51.306;17.056;2023-02-01T08:34:16;9.00;3.00;
69224;PMS1003;56333;51.306;17.056;2023-02-01T08:35:45;7.80;2.70;
69224;PMS1003;56333;51.306;17.056;2023-02-01T08:37:15;11.30;2.80;
69224;PMS1003;56333;51.306;17.056;2023-02-01T08:38:46;10.40;3.10;
69224;PMS1003;56333;51.306;17.056;2023-02-01T08:40:16;9.30;3.00;
69224;PMS1003;56333;51.306;17.056;2023-02-01T08:41:47;9.60;2.70;
69224;PMS1003;56333;51.306;17.056;2023-02-01T08:43:32;7.60;2.60;
69224;PMS1003;56333;51.306;17.056;2023-02-01T08:45:05;9.50;3.20;
69224;PMS1003;56333;51.306;17.056;2023-02-01T08:46:35;11.00;3.30;
69224;PMS1003;56333;51.306;17.056;2023-02-01T08:48:06;8.20;2.50;
69224;PMS1003;56333;51.306;17.056;2023-02-01T08:49:36;7.50;2.70;
69224;PMS1003;56333;51.306;17.056;2023-02-01T08:51:09;8.30;2.80;
69224;PMS1003;56333;51.306;17.056;2023-02-01T08:53:00;9.80;2.80;
69224;PMS1003;56333;51.306;17.056;2023-02-01T08:54:35;12.20;3.20;
69224;PMS1003;56333;51.306;17.056;2023-02-01T08:56:09;7.90;2.80;
69224;PMS1003;56333;51.306;17.056;2023-02-01T08:57:41;10.30;2.80;
69224;PMS1003;56333;51.306;17.056;2023-02-01T08:59:11;11.70;2.60;
69224;PMS1003;56333;51.306;17.056;2023-02-01T09:00:40;8.20;2.50;
69224;PMS1003;56333;51.306;17.056;2023-02-01T09:02:13;8.60;2.70;
69224;PMS1003;56333;51.306;17.056;2023-02-01T09:03:44;9.60;2.80;
69224;PMS1003;56333;51.306;17.056;2023-02-01T09:05:14;8.10;2.50;
69224;PMS1003;56333;51.306;17.056;2023-02-01T09:06:46;8.20;2.50;
69224;PMS1003;56333;51.306;17.056;2023-02-01T09:08:15;6.80;2.70;
69224;PMS1003;56333;51.306;17.056;2023-02-01T09:09:46;9.10;2.90;
69224;PMS1003;56333;51.306;17.056;2023-02-01T09:11:18;9.50;2.60;
69224;PMS1003;56333;51.306;17.056;2023-02-01T09:12:52;9.30;2.20;
69224;PMS1003;56333;51.306;17.056;2023-02-01T09:14:24;7.20;2.60;
69224;PMS1003;56333;51.306;17.056;2023-02-01T09:17:40;8.50;2.90;
69224;PMS1003;56333;51.306;17.056;2023-02-01T09:19:15;10.70;3.20;
69224;PMS1003;56333;51.306;17.056;2023-02-01T09:20:49;11.20;3.30;
69224;PMS1003;56333;51.306;17.056;2023-02-01T09:22:25;9.90;3.60;
69224;PMS1003;56333;51.306;17.056;2023-02-01T09:24:12;9.40;3.50;
69224;PMS1003;56333;51.306;17.056;2023-02-01T09:25:44;10.40;3.00;
69224;PMS1003;56333;51.306;17.056;2023-02-01T09:27:21;12.20;3.20;
69224;PMS1003;56333;51.306;17.056;2023-02-01T09:28:52;9.80;3.20;
69224;PMS1003;56333;51.306;17.056;2023-02-01T09:30:41;9.20;3.00;
69224;PMS1003;56333;51.306;17.056;2023-02-01T09:32:12;12.20;3.40;
69224;PMS1003;56333;51.306;17.056;2023-02-01T09:33:41;10.40;3.50;
69224;PMS1003;56333;51.306;17.056;2023-02-01T09:35:12;12.70;3.70;
69224;PMS1003;56333;51.306;17.056;2023-02-01T09:36:47;13.00;4.00;
69224;PMS1003;56333;51.306;17.056;2023-02-01T09:38:16;12.60;4.40;
69224;PMS1003;56333;51.306;17.056;2023-02-01T09:39:46;9.60;3.40;